createdAt,value
2018-07-07T00:05:21.618Z,9.58
2018-07-07T00:11:16.642Z,10.02
2018-07-07T00:17:11.661Z,11.5
2018-07-07T00:23:06.644Z,11.12
2018-07-07T00:29:01.662Z,8.52
2018-07-07T00:34:56.660Z,10.79
2018-07-07T00:40:51.633Z,11.67
2018-07-07T00:46:46.680Z,9.23
2018-07-07T00:52:41.677Z,12.01
2018-07-07T00:58:36.747Z,9.91
2018-07-07T01:04:31.672Z,10.26
2018-07-07T01:10:26.740Z,10.79
2018-07-07T01:16:21.795Z,10.45
2018-07-07T01:22:16.739Z,10.66
2018-07-07T01:28:11.741Z,13.29
2018-07-07T01:34:06.729Z,13.46
2018-07-07T01:40:01.844Z,8.78
2018-07-07T01:45:56.760Z,8.23
2018-07-07T01:51:51.701Z,9.84
2018-07-07T01:57:46.861Z,13.53
2018-07-07T02:03:41.808Z,10.07
2018-07-07T02:09:36.770Z,10.87
2018-07-07T02:15:31.749Z,12.6
2018-07-07T02:21:26.747Z,11.11
2018-07-07T02:27:21.722Z,12.97
2018-07-07T02:33:16.788Z,11.84
2018-07-07T02:39:11.761Z,15.95
2018-07-07T02:45:06.863Z,12.43
2018-07-07T02:51:01.763Z,9.6
2018-07-07T02:56:56.771Z,9.61
2018-07-07T03:02:51.805Z,8.64
2018-07-07T03:08:46.767Z,11.73
2018-07-07T03:14:41.799Z,10.04
2018-07-07T03:20:36.833Z,11.12
2018-07-07T03:26:31.774Z,15.54
2018-07-07T03:32:26.804Z,12.64
2018-07-07T03:38:21.782Z,12.91
2018-07-07T03:44:16.876Z,10.85
2018-07-07T03:50:12.284Z,14.8
2018-07-07T03:56:06.790Z,10.45
2018-07-07T04:02:01.793Z,16.83
2018-07-07T04:07:56.856Z,13.03
2018-07-07T04:13:51.815Z,12.01
2018-07-07T04:19:46.800Z,9.93
2018-07-07T04:25:41.824Z,12.31
2018-07-07T04:31:36.842Z,11.22
2018-07-07T04:37:31.835Z,13.8
2018-07-07T04:43:26.818Z,10.27
2018-07-07T04:49:21.822Z,10.38
2018-07-07T04:55:16.851Z,13.76
2018-07-07T05:01:11.917Z,13.64
2018-07-07T05:07:06.856Z,10.43
2018-07-07T05:13:01.876Z,16.79
2018-07-07T05:18:56.848Z,11.89
2018-07-07T05:24:51.850Z,12.5
2018-07-07T05:30:46.857Z,12.45
2018-07-07T05:36:41.927Z,14.55
2018-07-07T05:42:36.898Z,13.46
2018-07-07T05:48:31.942Z,12.01
2018-07-07T05:54:26.884Z,13.61
2018-07-07T06:00:22.262Z,13.91
2018-07-07T06:06:16.885Z,16.22
2018-07-07T06:12:11.929Z,14.99
2018-07-07T06:18:06.958Z,14.04
2018-07-07T06:24:01.922Z,17.45
2018-07-07T06:29:56.948Z,19.18
2018-07-07T06:35:52.002Z,16.13
2018-07-07T06:41:46.986Z,19.07
2018-07-07T06:47:41.949Z,21.08
2018-07-07T06:53:37.000Z,25.98
2018-07-07T06:59:32.031Z,16.7
2018-07-07T07:05:26.976Z,18.03
2018-07-07T07:11:21.972Z,18.62
2018-07-07T07:17:16.952Z,18.37
2018-07-07T07:23:11.939Z,16.45
2018-07-07T07:29:06.957Z,14.46
2018-07-07T07:35:02.243Z,14
2018-07-07T07:40:56.979Z,15.49
2018-07-07T07:46:52.075Z,17.33
2018-07-07T07:52:46.987Z,18.48
2018-07-07T07:58:41.992Z,19.05
2018-07-07T08:04:37.016Z,18.41
2018-07-07T08:10:32.004Z,15.3
2018-07-07T08:16:27.003Z,16.09
2018-07-07T08:22:22.008Z,13.21
2018-07-07T08:28:17.017Z,15.47
2018-07-07T08:34:12.006Z,12.6
2018-07-07T08:40:07.041Z,9.02
2018-07-07T08:46:02.048Z,7.86
2018-07-07T08:51:57.029Z,8.27
2018-07-07T08:57:52.023Z,12
2018-07-07T09:03:47.081Z,7.25
2018-07-07T09:09:42.080Z,7.54
2018-07-07T09:15:37.098Z,10.1
2018-07-07T09:21:32.166Z,6.54
2018-07-07T09:27:27.079Z,5.44
2018-07-07T09:33:22.082Z,5.2
2018-07-07T09:39:17.037Z,6.89
2018-07-07T09:45:12.047Z,5.65
2018-07-07T09:51:07.070Z,6.75
2018-07-07T09:57:02.181Z,7.5
2018-07-07T10:02:57.089Z,8.65
2018-07-07T10:08:52.125Z,6.59
2018-07-07T10:14:47.116Z,5.97
2018-07-07T10:20:42.113Z,6.24
2018-07-07T10:26:37.105Z,5.08
2018-07-07T10:32:32.131Z,4.39
2018-07-07T10:38:27.177Z,5.81
2018-07-07T10:44:22.177Z,6.44
2018-07-07T10:50:17.131Z,4.04
2018-07-07T10:56:12.193Z,20.78
2018-07-07T11:02:07.180Z,18.3
2018-07-07T11:08:02.196Z,8.55
2018-07-07T11:13:57.233Z,16.25
2018-07-07T11:19:52.214Z,11.51
2018-07-07T11:25:47.149Z,6.61
2018-07-07T11:31:42.211Z,3.57
2018-07-07T11:37:37.192Z,4.86
2018-07-07T11:43:32.214Z,3.47
2018-07-07T11:49:27.191Z,4.25
2018-07-07T11:55:22.201Z,3.27
2018-07-07T12:01:17.207Z,3.25
2018-07-07T12:07:17.277Z,3.76
2018-07-07T12:13:07.230Z,3.8
2018-07-07T12:19:02.273Z,3
2018-07-07T12:24:57.243Z,3.52
2018-07-07T12:30:52.216Z,3.28
2018-07-07T12:36:47.341Z,3.26
2018-07-07T12:42:42.270Z,3.27
2018-07-07T12:48:37.264Z,3.92
2018-07-07T12:54:32.316Z,3.72
2018-07-07T13:00:27.264Z,3.65
2018-07-07T13:06:22.254Z,3.42
2018-07-07T13:12:17.270Z,3.52
2018-07-07T13:18:12.345Z,3.58
2018-07-07T13:24:07.293Z,4.39
2018-07-07T13:30:02.268Z,6.41
2018-07-07T13:35:57.275Z,4.96
2018-07-07T13:41:52.853Z,4.13
2018-07-07T13:47:47.306Z,5.15
2018-07-07T13:53:42.292Z,5.67
2018-07-07T13:59:37.348Z,15.59
2018-07-07T14:05:32.351Z,8.33
2018-07-07T14:11:27.318Z,6.34
2018-07-07T14:17:22.322Z,9.68
2018-07-07T14:23:17.322Z,9.51
2018-07-07T14:29:12.360Z,8
2018-07-07T14:35:07.386Z,7.97
2018-07-07T14:41:02.338Z,6.43
2018-07-07T14:46:57.312Z,6.97
2018-07-07T14:52:52.338Z,5.32
2018-07-07T14:58:47.388Z,6.59
2018-07-07T15:04:42.400Z,7.07
2018-07-07T15:10:37.352Z,8.53
2018-07-07T15:16:32.420Z,5.29
2018-07-07T15:22:27.375Z,6.18
2018-07-07T15:28:22.373Z,9.52
2018-07-07T15:34:17.502Z,8.9
2018-07-07T15:40:12.505Z,9.58
2018-07-07T15:46:07.388Z,7.69
2018-07-07T15:52:02.410Z,8.38
2018-07-07T15:57:57.380Z,7.44
2018-07-07T16:03:52.411Z,9.38
2018-07-07T16:09:47.448Z,5
2018-07-07T16:15:42.448Z,6.58
2018-07-07T16:21:37.455Z,4.53
2018-07-07T16:27:32.480Z,5.38
2018-07-07T16:33:27.431Z,4.23
2018-07-07T16:39:22.473Z,5.56
2018-07-07T16:45:17.447Z,4.5
2018-07-07T16:51:12.438Z,4.6
2018-07-07T16:57:07.493Z,5.16
2018-07-07T17:03:02.461Z,5.41
2018-07-07T17:08:57.472Z,5.06
2018-07-07T17:14:52.467Z,4.93
2018-07-07T17:20:47.514Z,4.41
2018-07-07T17:26:42.482Z,4.5
2018-07-07T17:32:37.477Z,6.59
2018-07-07T17:38:32.481Z,5.68
2018-07-07T17:44:27.510Z,3.92
2018-07-07T17:50:22.486Z,7.61
2018-07-07T17:56:17.600Z,4.54
2018-07-07T18:02:12.480Z,4.34
2018-07-07T18:08:07.545Z,4.91
2018-07-07T18:14:02.535Z,7.49
2018-07-07T18:19:57.545Z,6.32
2018-07-07T18:25:52.540Z,6.67
2018-07-07T18:31:47.548Z,4.9
2018-07-07T18:37:42.699Z,5.04
2018-07-07T18:43:37.613Z,4.89
2018-07-07T18:49:32.568Z,5.72
2018-07-07T18:55:27.603Z,8.49
2018-07-07T19:01:22.562Z,5.24
2018-07-07T19:07:17.605Z,5.28
2018-07-07T19:13:12.567Z,5.16
2018-07-07T19:19:07.554Z,6.96
2018-07-07T19:25:02.842Z,5.35
2018-07-07T19:30:57.641Z,8.54
2018-07-07T19:36:52.592Z,7.07
2018-07-07T19:42:47.571Z,6.57
2018-07-07T19:48:42.574Z,7.07
2018-07-07T19:54:37.584Z,5.18
2018-07-07T20:00:32.616Z,7.12
2018-07-07T20:06:27.616Z,5.37
2018-07-07T20:12:22.573Z,9.69
2018-07-07T20:18:17.655Z,8.15
2018-07-07T20:24:12.613Z,7.94
2018-07-07T20:30:07.639Z,7.29
2018-07-07T20:36:02.620Z,6.71
2018-07-07T20:41:57.615Z,8.93
2018-07-07T20:47:52.690Z,7.41
2018-07-07T20:53:47.614Z,7.9
2018-07-07T20:59:42.677Z,9.74
2018-07-07T21:05:37.725Z,9.24
2018-07-07T21:11:32.661Z,5.42
2018-07-07T21:17:27.625Z,7.88
2018-07-07T21:23:22.744Z,8.6
2018-07-07T21:29:17.691Z,5.78
2018-07-07T21:35:12.648Z,5.7
2018-07-07T21:41:07.662Z,5.76
2018-07-07T21:47:02.670Z,6.56
2018-07-07T21:52:57.731Z,8.19
2018-07-07T21:58:52.705Z,5.21
2018-07-07T22:04:47.695Z,6.19
2018-07-07T22:10:42.722Z,9.14
2018-07-07T22:16:37.693Z,5.52
2018-07-07T22:22:32.743Z,6.04
2018-07-07T22:28:27.748Z,6.68
2018-07-07T22:34:22.742Z,5.6
2018-07-07T22:40:17.736Z,7.58
2018-07-07T22:46:12.725Z,5.56
2018-07-07T22:52:07.772Z,7.61
2018-07-07T22:58:02.753Z,7
2018-07-07T23:03:57.737Z,8.52
2018-07-07T23:09:52.726Z,7.27
2018-07-07T23:15:47.738Z,6.03
2018-07-07T23:21:42.791Z,11.17
2018-07-07T23:27:37.749Z,9.01
2018-07-07T23:33:32.877Z,11.49
2018-07-07T23:39:27.835Z,9.27
2018-07-07T23:45:22.785Z,7.29
2018-07-07T23:51:17.785Z,6.62
2018-07-07T23:57:12.826Z,9.95
